createdAt,value
2018-03-03T00:00:43.960Z,58.91
2018-03-03T00:03:14.948Z,58.62
2018-03-03T00:05:45.957Z,58.07
2018-03-03T00:08:16.944Z,58.00
2018-03-03T00:10:47.964Z,58.23
2018-03-03T00:13:18.937Z,57.97
2018-03-03T00:15:49.977Z,57.69
2018-03-03T00:18:21.009Z,57.49
2018-03-03T00:20:52.039Z,57.40
2018-03-03T00:23:23.013Z,57.66
2018-03-03T00:25:54.000Z,57.81
2018-03-03T00:28:24.995Z,57.69
2018-03-03T00:30:55.954Z,57.62
2018-03-03T00:33:26.995Z,57.75
2018-03-03T00:35:57.961Z,57.83
2018-03-03T00:38:28.985Z,57.74
2018-03-03T00:40:59.932Z,57.75
2018-03-03T00:43:30.970Z,57.68
2018-03-03T00:46:01.972Z,57.65
2018-03-03T00:48:32.991Z,57.85
2018-03-03T00:51:04.009Z,57.98
2018-03-03T00:53:34.999Z,57.87
2018-03-03T00:56:06.049Z,58.46
2018-03-03T00:58:37.074Z,58.94
2018-03-03T01:01:08.091Z,59.20
2018-03-03T01:03:39.029Z,58.67
2018-03-03T01:06:10.048Z,58.34
2018-03-03T01:08:41.062Z,58.31
2018-03-03T01:11:12.106Z,58.01
2018-03-03T01:13:43.075Z,58.38
2018-03-03T01:16:14.087Z,58.24
2018-03-03T01:18:45.085Z,58.52
2018-03-03T01:21:16.089Z,58.38
2018-03-03T01:23:47.098Z,58.19
2018-03-03T01:26:18.087Z,58.20
2018-03-03T01:28:49.097Z,57.96
2018-03-03T01:31:20.088Z,57.58
2018-03-03T01:33:51.114Z,57.46
2018-03-03T01:36:22.115Z,57.30
2018-03-03T01:38:53.112Z,57.42
2018-03-03T01:41:24.105Z,57.50
2018-03-03T01:43:55.060Z,58.13
2018-03-03T01:46:26.052Z,58.27
2018-03-03T01:48:57.042Z,58.81
2018-03-03T01:51:40.300Z,59.09
2018-03-03T01:54:11.311Z,59.23
2018-03-03T01:56:42.326Z,58.85
2018-03-03T01:59:13.319Z,58.83
2018-03-03T02:01:44.334Z,58.88
2018-03-03T02:04:15.348Z,58.86
2018-03-03T02:06:46.321Z,58.41
2018-03-03T02:09:17.369Z,58.18
2018-03-03T02:11:48.325Z,58.20
2018-03-03T02:14:19.364Z,58.42
2018-03-03T02:16:50.327Z,58.92
2018-03-03T02:19:21.349Z,58.82
2018-03-03T02:21:52.315Z,58.80
2018-03-03T02:24:23.356Z,59.28
2018-03-03T02:26:54.355Z,59.43
2018-03-03T02:29:25.355Z,59.31
2018-03-03T02:31:56.350Z,59.46
2018-03-03T02:34:27.361Z,59.50
2018-03-03T02:36:58.370Z,59.58
2018-03-03T02:39:29.380Z,59.68
2018-03-03T02:42:00.326Z,59.50
2018-03-03T02:44:31.346Z,59.87
2018-03-03T02:47:02.344Z,60.18
2018-03-03T02:49:33.323Z,60.09
2018-03-03T02:52:04.350Z,60.08
2018-03-03T02:54:35.337Z,59.98
2018-03-03T02:57:06.323Z,60.57
2018-03-03T02:59:37.297Z,60.95
2018-03-03T03:02:08.339Z,61.04
2018-03-03T03:04:39.356Z,60.90
2018-03-03T03:07:10.366Z,60.59
2018-03-03T03:09:41.392Z,60.71
2018-03-03T03:12:12.374Z,61.07
2018-03-03T03:14:43.355Z,61.64
2018-03-03T03:17:14.349Z,61.65
2018-03-03T03:19:45.343Z,61.60
2018-03-03T03:22:16.356Z,61.54
2018-03-03T03:24:47.315Z,61.44
2018-03-03T03:27:18.339Z,61.64
2018-03-03T03:29:49.322Z,61.61
2018-03-03T03:32:20.340Z,61.60
2018-03-03T03:34:51.312Z,61.69
2018-03-03T03:37:22.364Z,61.41
2018-03-03T03:39:53.340Z,61.59
2018-03-03T03:42:24.308Z,61.43
2018-03-03T03:44:55.362Z,61.41
2018-03-03T03:47:26.312Z,61.17
2018-03-03T03:49:57.317Z,61.13
2018-03-03T03:52:28.285Z,61.79
2018-03-03T03:54:59.296Z,62.36
2018-03-03T03:57:30.264Z,62.13
2018-03-03T04:00:01.294Z,62.17
2018-03-03T04:02:32.290Z,62.69
2018-03-03T04:05:03.249Z,62.83
2018-03-03T04:07:34.317Z,63.01
2018-03-03T04:10:05.269Z,63.29
2018-03-03T04:12:36.287Z,63.41
2018-03-03T04:15:07.267Z,63.10
2018-03-03T04:17:38.245Z,63.25
2018-03-03T04:20:09.267Z,63.69
2018-03-03T04:22:40.263Z,63.42
2018-03-03T04:25:11.259Z,63.21
2018-03-03T04:27:42.339Z,63.19
2018-03-03T04:30:13.308Z,63.21
2018-03-03T04:32:44.348Z,63.49
2018-03-03T04:35:15.369Z,63.36
2018-03-03T04:37:46.345Z,63.82
2018-03-03T04:40:17.341Z,64.27
2018-03-03T04:42:48.327Z,64.02
2018-03-03T04:45:19.303Z,64.57
2018-03-03T04:47:50.296Z,64.81
2018-03-03T04:50:21.288Z,65.54
2018-03-03T04:52:52.305Z,65.56
2018-03-03T04:55:23.347Z,65.37
2018-03-03T04:57:54.342Z,65.25
2018-03-03T05:00:30.303Z,64.88
2018-03-03T05:06:15.120Z,64.53
2018-03-03T05:08:46.130Z,64.78
2018-03-03T05:11:17.141Z,64.57
2018-03-03T05:17:05.574Z,64.95
2018-03-03T05:19:42.605Z,64.72
2018-03-03T05:22:19.721Z,64.67
2018-03-03T05:24:56.927Z,64.17
2018-03-03T05:27:38.655Z,63.77
2018-03-03T05:33:32.385Z,63.14
2018-03-03T05:36:09.446Z,63.24
2018-03-03T05:41:49.399Z,63.22
2018-03-03T05:47:45.264Z,63.09
2018-03-03T05:50:22.359Z,63.49
2018-03-03T05:52:59.553Z,63.69
2018-03-03T05:55:36.615Z,63.87
2018-03-03T05:58:13.634Z,64.11
2018-03-03T06:00:50.717Z,63.96
2018-03-03T06:03:27.942Z,64.03
2018-03-03T06:06:10.864Z,63.65
2018-03-03T06:11:47.741Z,64.50
2018-03-03T06:14:18.759Z,64.80
2018-03-03T06:16:49.792Z,64.45
2018-03-03T06:19:20.762Z,64.38
2018-03-03T06:21:51.752Z,63.75
2018-03-03T06:24:22.842Z,63.09
2018-03-03T06:26:53.827Z,62.46
2018-03-03T06:29:24.840Z,62.21
2018-03-03T06:31:55.800Z,62.10
2018-03-03T06:34:26.783Z,61.93
2018-03-03T06:36:57.736Z,62.16
2018-03-03T06:39:28.739Z,62.58
2018-03-03T06:41:59.795Z,62.43
2018-03-03T06:44:30.822Z,61.79
2018-03-03T06:47:01.784Z,61.29
2018-03-03T06:49:32.785Z,61.19
2018-03-03T06:52:03.740Z,61.59
2018-03-03T06:54:34.779Z,61.37
2018-03-03T06:57:05.750Z,61.66
2018-03-03T06:59:36.719Z,61.87
2018-03-03T07:02:07.729Z,61.60
2018-03-03T07:04:38.708Z,60.78
2018-03-03T07:07:09.694Z,59.88
2018-03-03T07:09:40.726Z,59.04
2018-03-03T07:12:11.761Z,58.48
2018-03-03T07:14:42.760Z,59.01
2018-03-03T07:17:13.785Z,58.45
2018-03-03T07:19:44.741Z,57.63
2018-03-03T07:22:15.758Z,57.27
2018-03-03T07:24:46.767Z,56.56
2018-03-03T07:27:17.744Z,55.92
2018-03-03T07:29:48.725Z,56.44
2018-03-03T07:32:19.677Z,56.12
2018-03-03T07:34:50.677Z,55.62
2018-03-03T07:37:21.631Z,54.90
2018-03-03T07:39:52.617Z,54.09
2018-03-03T07:42:23.585Z,53.52
2018-03-03T07:44:54.561Z,53.32
2018-03-03T07:47:25.604Z,53.03
2018-03-03T07:49:56.605Z,52.75
2018-03-03T07:52:27.610Z,53.38
2018-03-03T07:54:58.586Z,54.50
2018-03-03T07:57:29.589Z,54.67
2018-03-03T08:00:00.585Z,54.88
2018-03-03T08:02:31.683Z,55.48
2018-03-03T08:05:02.712Z,55.31
2018-03-03T08:07:33.735Z,54.96
2018-03-03T08:10:04.724Z,54.77
2018-03-03T08:12:35.692Z,55.80
2018-03-03T08:15:06.733Z,55.98
2018-03-03T08:17:37.715Z,56.01
2018-03-03T08:20:08.692Z,55.87
2018-03-03T08:22:39.694Z,55.97
2018-03-03T08:25:10.715Z,56.70
2018-03-03T08:27:41.713Z,57.30
2018-03-03T08:30:12.739Z,57.04
2018-03-03T08:32:43.705Z,56.97
2018-03-03T08:35:14.668Z,56.85
2018-03-03T08:37:45.787Z,56.55
2018-03-03T08:40:16.779Z,56.26
2018-03-03T08:42:47.759Z,55.89
2018-03-03T08:45:18.727Z,55.84
2018-03-03T08:47:49.751Z,55.39
2018-03-03T08:50:20.738Z,54.40
2018-03-03T08:52:51.751Z,54.25
2018-03-03T08:55:22.791Z,54.19
2018-03-03T08:57:53.763Z,53.48
2018-03-03T09:00:24.749Z,52.94
2018-03-03T09:02:55.769Z,52.79
2018-03-03T09:05:26.743Z,53.34
2018-03-03T09:07:57.741Z,54.25
2018-03-03T09:10:28.759Z,54.95
2018-03-03T09:12:59.738Z,55.47
2018-03-03T09:15:30.758Z,55.06
2018-03-03T09:18:01.775Z,54.14
2018-03-03T09:20:32.854Z,52.95
2018-03-03T09:23:03.993Z,50.84
2018-03-03T09:25:34.996Z,49.10
2018-03-03T09:28:05.999Z,48.05
2018-03-03T09:30:36.987Z,47.04
2018-03-03T09:33:07.969Z,46.22
2018-03-03T09:35:38.981Z,45.50
2018-03-03T09:38:10.016Z,44.69
2018-03-03T09:40:40.978Z,44.01
2018-03-03T09:43:12.023Z,43.63
2018-03-03T09:45:42.981Z,42.12
2018-03-03T09:48:14.033Z,41.37
2018-03-03T09:50:45.029Z,40.05
2018-03-03T09:53:16.106Z,37.72
2018-03-03T09:55:47.072Z,36.68
2018-03-03T09:58:18.073Z,37.48
2018-03-03T10:00:49.099Z,39.49
2018-03-03T10:03:20.133Z,40.97
2018-03-03T10:05:51.180Z,40.94
2018-03-03T10:08:22.207Z,39.98
2018-03-03T10:10:53.241Z,39.01
2018-03-03T10:13:24.255Z,37.24
2018-03-03T10:15:55.260Z,35.03
2018-03-03T10:18:26.243Z,33.46
2018-03-03T10:20:57.199Z,33.16
2018-03-03T10:23:28.233Z,31.55
2018-03-03T10:25:59.187Z,28.17
2018-03-03T10:28:30.150Z,27.62
2018-03-03T10:31:01.133Z,28.49
2018-03-03T10:33:32.100Z,25.67
2018-03-03T10:36:03.103Z,27.21
2018-03-03T10:38:34.136Z,27.85
2018-03-03T10:41:05.082Z,28.12
2018-03-03T10:43:36.052Z,29.14
2018-03-03T10:46:07.017Z,29.42
2018-03-03T10:48:37.982Z,30.17
2018-03-03T10:51:08.947Z,30.33
2018-03-03T10:53:39.984Z,31.11
2018-03-03T10:56:10.950Z,31.75
2018-03-03T10:58:41.959Z,32.82
2018-03-03T11:01:12.974Z,33.94
2018-03-03T11:03:43.947Z,34.12
2018-03-03T11:06:14.922Z,34.21
2018-03-03T11:08:45.919Z,34.88
2018-03-03T11:11:16.872Z,35.19
2018-03-03T11:13:47.889Z,34.45
2018-03-03T11:16:18.890Z,32.69
2018-03-03T11:18:49.883Z,30.96
2018-03-03T11:21:20.848Z,31.15
2018-03-03T11:23:51.839Z,32.37
2018-03-03T11:26:22.826Z,32.70
2018-03-03T11:28:53.809Z,33.33
2018-03-03T11:31:24.830Z,34.05
2018-03-03T11:33:55.843Z,34.88
2018-03-03T11:36:26.789Z,35.81
2018-03-03T11:38:57.766Z,37.04
2018-03-03T11:41:28.745Z,37.78
2018-03-03T11:43:59.751Z,37.63
2018-03-03T11:46:30.738Z,37.88
2018-03-03T11:49:01.779Z,38.56
2018-03-03T11:51:32.756Z,38.42
2018-03-03T11:54:03.805Z,38.83
2018-03-03T11:56:34.837Z,39.36
2018-03-03T11:59:05.795Z,41.07
2018-03-03T12:01:36.790Z,43.33
2018-03-03T12:04:07.768Z,43.43
2018-03-03T12:06:38.735Z,42.32
2018-03-03T12:09:09.790Z,41.81
2018-03-03T12:11:40.801Z,42.39
2018-03-03T12:14:11.824Z,43.66
2018-03-03T12:16:42.862Z,43.72
2018-03-03T12:19:13.891Z,44.26
2018-03-03T12:21:44.871Z,45.18
2018-03-03T12:24:15.929Z,44.78
2018-03-03T12:26:46.959Z,45.20
2018-03-03T12:29:17.970Z,46.30
2018-03-03T12:31:49.016Z,46.51
2018-03-03T12:34:20.021Z,45.92
2018-03-03T12:36:51.033Z,46.00
2018-03-03T12:39:22.058Z,46.25
2018-03-03T12:41:53.070Z,46.02
2018-03-03T12:44:24.051Z,44.80
2018-03-03T12:46:55.059Z,44.41
2018-03-03T12:49:26.041Z,45.30
2018-03-03T12:51:57.047Z,45.44
2018-03-03T12:54:28.122Z,45.22
2018-03-03T12:56:59.091Z,44.36
2018-03-03T12:59:30.102Z,44.00
2018-03-03T13:02:01.061Z,43.16
2018-03-03T13:04:32.039Z,42.66
2018-03-03T13:07:03.002Z,41.61
2018-03-03T13:09:33.996Z,40.27
2018-03-03T13:12:04.977Z,38.92
2018-03-03T13:14:35.991Z,37.12
2018-03-03T13:17:06.978Z,37.19
2018-03-03T13:19:37.968Z,37.61
2018-03-03T13:22:08.966Z,37.77
2018-03-03T13:24:39.948Z,38.51
2018-03-03T13:27:10.957Z,38.85
2018-03-03T13:29:41.947Z,39.45
2018-03-03T13:32:12.941Z,40.76
2018-03-03T13:34:43.903Z,42.57
2018-03-03T13:37:14.903Z,42.91
2018-03-03T13:39:45.917Z,43.15
2018-03-03T13:42:16.917Z,43.75
2018-03-03T13:44:47.933Z,43.76
2018-03-03T13:47:18.920Z,43.65
2018-03-03T13:49:49.961Z,43.19
2018-03-03T13:52:20.942Z,42.77
2018-03-03T13:54:51.975Z,43.08
2018-03-03T13:57:22.930Z,43.51
2018-03-03T13:59:53.925Z,43.34
2018-03-03T14:02:24.935Z,43.93
2018-03-03T14:04:55.941Z,44.35
2018-03-03T14:07:26.917Z,44.96
2018-03-03T14:09:57.949Z,46.05
2018-03-03T14:12:28.951Z,46.63
2018-03-03T14:14:59.916Z,47.15
2018-03-03T14:17:30.879Z,48.31
2018-03-03T14:20:01.919Z,48.83
2018-03-03T14:22:32.902Z,49.36
2018-03-03T14:25:03.896Z,49.41
2018-03-03T14:27:34.883Z,48.85
2018-03-03T14:30:05.831Z,48.41
2018-03-03T14:32:36.831Z,49.57
2018-03-03T14:35:07.776Z,49.40
2018-03-03T14:37:38.755Z,49.17
2018-03-03T14:40:09.756Z,48.90
2018-03-03T14:42:40.741Z,49.14
2018-03-03T14:45:11.786Z,49.50
2018-03-03T14:47:42.771Z,49.35
2018-03-03T14:50:13.763Z,49.03
2018-03-03T14:52:44.772Z,48.52
2018-03-03T14:55:15.765Z,48.28
2018-03-03T14:57:46.771Z,48.07
2018-03-03T15:00:17.774Z,47.38
2018-03-03T15:02:48.833Z,47.55
2018-03-03T15:05:19.829Z,47.51
2018-03-03T15:07:50.798Z,47.03
2018-03-03T15:10:21.809Z,46.54
2018-03-03T15:12:52.830Z,46.17
2018-03-03T15:15:23.838Z,46.20
2018-03-03T15:17:54.825Z,46.29
2018-03-03T15:20:25.893Z,47.13
2018-03-03T15:22:56.903Z,47.75
2018-03-03T15:25:27.931Z,48.10
2018-03-03T15:27:58.915Z,48.23
2018-03-03T15:30:29.895Z,48.17
2018-03-03T15:33:00.947Z,48.42
2018-03-03T15:35:31.920Z,48.85
2018-03-03T15:38:02.948Z,49.36
2018-03-03T15:40:33.923Z,50.06
2018-03-03T15:43:04.945Z,50.70
2018-03-03T15:45:35.991Z,52.03
2018-03-03T15:48:07.004Z,52.17
2018-03-03T15:50:38.048Z,52.22
2018-03-03T15:53:08.981Z,52.10
2018-03-03T15:55:39.987Z,52.12
2018-03-03T15:58:10.976Z,52.33
2018-03-03T16:00:41.953Z,52.54
2018-03-03T16:03:12.997Z,52.48
2018-03-03T16:05:43.959Z,52.62
2018-03-03T16:08:14.973Z,52.60
2018-03-03T16:10:45.968Z,52.39
2018-03-03T16:13:16.963Z,52.18
2018-03-03T16:15:47.966Z,51.95
2018-03-03T16:18:18.971Z,51.83
2018-03-03T16:20:49.989Z,52.27
2018-03-03T16:23:20.976Z,52.30
2018-03-03T16:25:51.991Z,52.50
2018-03-03T16:28:22.943Z,52.53
2018-03-03T16:30:53.932Z,52.52
2018-03-03T16:33:24.969Z,52.66
2018-03-03T16:35:55.956Z,53.80
2018-03-03T16:38:26.987Z,53.43
2018-03-03T16:40:58.010Z,53.60
2018-03-03T16:43:29.028Z,53.78
2018-03-03T16:46:00.001Z,54.09
2018-03-03T16:48:31.051Z,53.96
2018-03-03T16:51:02.045Z,53.85
2018-03-03T16:53:33.028Z,54.23
2018-03-03T16:56:04.075Z,54.86
2018-03-03T16:58:35.083Z,54.96
2018-03-03T17:01:06.078Z,55.27
2018-03-03T17:03:37.086Z,55.26
2018-03-03T17:06:08.087Z,55.82
2018-03-03T17:08:39.101Z,55.89
2018-03-03T17:11:10.095Z,56.55
2018-03-03T17:13:41.169Z,56.72
2018-03-03T17:16:12.180Z,56.83
2018-03-03T17:18:43.215Z,57.14
2018-03-03T17:21:14.244Z,57.53
2018-03-03T17:23:45.217Z,57.73
2018-03-03T17:26:16.267Z,58.31
2018-03-03T17:28:47.285Z,58.71
2018-03-03T17:31:18.289Z,58.86
2018-03-03T17:33:49.256Z,58.54
2018-03-03T17:36:20.272Z,58.67
2018-03-03T17:38:51.268Z,58.52
2018-03-03T17:41:22.269Z,58.41
2018-03-03T17:43:53.279Z,58.42
2018-03-03T17:46:24.340Z,58.99
2018-03-03T17:48:55.316Z,58.76
2018-03-03T17:51:26.375Z,58.76
2018-03-03T17:53:57.360Z,58.87
2018-03-03T17:56:28.366Z,58.91
2018-03-03T17:58:59.386Z,59.52
2018-03-03T18:01:30.390Z,60.17
2018-03-03T18:04:01.418Z,60.59
2018-03-03T18:06:32.388Z,60.92
2018-03-03T18:09:03.478Z,60.68
2018-03-03T18:11:34.489Z,60.64
2018-03-03T18:14:05.597Z,60.65
2018-03-03T18:16:36.618Z,61.03
2018-03-03T18:19:07.610Z,62.08
2018-03-03T18:21:38.661Z,62.60
2018-03-03T18:24:22.000Z,62.68
2018-03-03T18:26:52.988Z,62.38
2018-03-03T18:29:24.029Z,62.52
2018-03-03T18:31:55.035Z,62.35
2018-03-03T18:34:26.058Z,62.00
2018-03-03T18:36:57.069Z,62.01
2018-03-03T18:39:28.093Z,62.10
2018-03-03T18:41:59.080Z,62.03
2018-03-03T18:44:30.105Z,61.68
2018-03-03T18:47:01.100Z,61.73
2018-03-03T18:49:32.094Z,61.85
2018-03-03T18:52:03.115Z,61.90
2018-03-03T18:54:34.051Z,62.31
2018-03-03T18:57:05.039Z,62.30
2018-03-03T18:59:36.120Z,62.63
2018-03-03T19:02:07.137Z,62.76
2018-03-03T19:04:38.118Z,62.78
2018-03-03T19:07:09.132Z,62.99
2018-03-03T19:09:40.155Z,62.79
2018-03-03T19:12:11.159Z,62.46
2018-03-03T19:14:42.167Z,62.46
2018-03-03T19:17:13.154Z,62.86
2018-03-03T19:19:44.141Z,62.91
2018-03-03T19:22:15.164Z,62.88
2018-03-03T19:24:46.167Z,63.33
2018-03-03T19:27:17.178Z,63.89
2018-03-03T19:29:48.179Z,63.90
2018-03-03T19:32:19.176Z,64.69
2018-03-03T19:34:50.222Z,64.39
2018-03-03T19:37:21.247Z,64.78
2018-03-03T19:39:52.266Z,64.34
2018-03-03T19:42:23.212Z,64.27
2018-03-03T19:44:54.227Z,64.22
2018-03-03T19:47:25.231Z,64.36
2018-03-03T19:49:56.227Z,64.27
2018-03-03T19:52:34.316Z,64.71
2018-03-03T19:55:05.371Z,64.79
2018-03-03T19:57:36.389Z,64.83
2018-03-03T20:00:07.376Z,64.67
2018-03-03T20:02:38.373Z,64.84
2018-03-03T20:05:09.379Z,64.90
2018-03-03T20:07:40.415Z,64.90
2018-03-03T20:10:11.422Z,64.62
2018-03-03T20:12:42.442Z,64.61
2018-03-03T20:15:13.441Z,64.66
2018-03-03T20:17:44.445Z,65.00
2018-03-03T20:20:15.484Z,64.52
2018-03-03T20:22:46.500Z,64.55
2018-03-03T20:25:17.529Z,64.21
2018-03-03T20:27:48.541Z,64.30
2018-03-03T20:30:19.565Z,64.30
2018-03-03T20:32:50.554Z,64.38
2018-03-03T20:35:21.569Z,64.77
2018-03-03T20:37:52.592Z,64.95
2018-03-03T20:40:23.567Z,64.92
2018-03-03T20:42:54.548Z,64.88
2018-03-03T20:45:25.593Z,65.17
2018-03-03T20:47:56.591Z,65.36
2018-03-03T20:50:27.579Z,64.93
2018-03-03T20:52:58.575Z,64.64
2018-03-03T20:55:29.585Z,64.85
2018-03-03T20:58:00.569Z,64.34
2018-03-03T21:00:31.596Z,63.99
2018-03-03T21:03:02.571Z,63.65
2018-03-03T21:05:33.579Z,63.13
2018-03-03T21:08:04.563Z,62.66
2018-03-03T21:10:35.598Z,62.21
2018-03-03T21:13:06.672Z,61.99
2018-03-03T21:15:37.697Z,61.97
2018-03-03T21:18:08.747Z,61.84
2018-03-03T21:20:39.761Z,61.70
2018-03-03T21:23:10.725Z,61.40
2018-03-03T21:25:41.713Z,61.18
2018-03-03T21:28:12.705Z,61.25
2018-03-03T21:30:43.655Z,61.14
2018-03-03T21:33:14.647Z,61.02
2018-03-03T21:35:45.657Z,60.99
2018-03-03T21:38:16.626Z,60.89
2018-03-03T21:40:47.609Z,60.66
2018-03-03T21:43:18.602Z,60.42
2018-03-03T21:45:49.620Z,60.22
2018-03-03T21:48:20.644Z,59.88
2018-03-03T21:50:51.684Z,59.72
2018-03-03T21:53:22.708Z,59.74
2018-03-03T21:55:53.681Z,59.65
2018-03-03T21:58:24.702Z,59.66
2018-03-03T22:00:55.690Z,59.58
2018-03-03T22:03:26.683Z,59.37
2018-03-03T22:05:57.685Z,59.27
2018-03-03T22:08:28.656Z,59.11
2018-03-03T22:10:59.668Z,59.12
2018-03-03T22:13:30.656Z,59.13
2018-03-03T22:16:01.621Z,59.04
2018-03-03T22:18:32.613Z,59.11
2018-03-03T22:21:03.627Z,59.02
2018-03-03T22:23:34.602Z,59.05
2018-03-03T22:26:05.570Z,58.93
2018-03-03T22:28:36.535Z,58.94
2018-03-03T22:31:07.523Z,59.07
2018-03-03T22:33:38.455Z,59.08
2018-03-03T22:36:09.416Z,59.25
2018-03-03T22:38:40.406Z,59.38
2018-03-03T22:41:11.407Z,59.60
2018-03-03T22:43:42.407Z,59.49
2018-03-03T22:46:13.355Z,59.48
2018-03-03T22:48:44.348Z,59.59
2018-03-03T22:51:15.347Z,59.67
2018-03-03T22:53:46.343Z,59.58
2018-03-03T22:56:17.307Z,59.64
2018-03-03T22:58:48.294Z,59.78
2018-03-03T23:01:19.312Z,59.82
2018-03-03T23:03:50.294Z,59.84
2018-03-03T23:06:21.285Z,59.63
2018-03-03T23:08:52.288Z,59.79
2018-03-03T23:11:23.314Z,59.88
2018-03-03T23:13:54.302Z,59.78
2018-03-03T23:16:25.312Z,59.63
2018-03-03T23:19:03.190Z,59.42
2018-03-03T23:21:34.189Z,59.41
2018-03-03T23:24:05.196Z,59.66
2018-03-03T23:26:36.143Z,59.49
2018-03-03T23:29:07.152Z,59.47
2018-03-03T23:31:38.127Z,59.48
2018-03-03T23:34:09.177Z,59.13
2018-03-03T23:36:40.187Z,59.01
2018-03-03T23:39:11.189Z,58.98
2018-03-03T23:41:42.214Z,59.11
2018-03-03T23:44:13.222Z,59.19
2018-03-03T23:46:44.206Z,59.32
2018-03-03T23:49:15.156Z,59.40
2018-03-03T23:51:46.170Z,59.20
2018-03-03T23:54:17.192Z,59.29
2018-03-03T23:56:48.155Z,59.47
2018-03-03T23:59:19.201Z,59.93
